• Join FlightAware (Why Join?)
  • Login
  • US Flag 
11:25AM EDT


 

Airport Tracker/Info


-or-


 

Live Flight TrackerFlight Track Log ✈ ASQ5941 ✈ 12-Jul-2013 ✈ KORD - KAVP

Flight Track Log - Related Links

Times and Time Zones

All times are in EDT time to prevent confusion due to time zone crossing. See the ASQ5941 flight status page for this flight to view local times or setup timezone preferences in your user account.

Time Position Orientation Groundspeed Altitude Reporting Facility
EDT Latitude Longitude Course Direction KTS MPH feet Rate Location/Type
03:37PM 41.9167 -87.9167 80° East 166 191 3,300  Level Chicago TRACON
03:38PM 41.8919 -87.8539 118° Southeast 228 262 4,700 840 Climbing Chicago Center
03:39PM 41.8547 -87.7744 122° Southeast 239 275 5,000 180 Climbing Chicago Center
03:40PM 42.0510 -87.3601 78° East  Level FlightAware Approximate
03:40PM 41.8461 -87.6833 97° East 263 303 5,100  Level Chicago Center
03:41PM 42.0722 -87.2230 78° East  Level FlightAware Approximate
03:41PM 41.8811 -87.5997 61° Northeast 260 299 5,200  Level Chicago Center
03:42PM 42.0940 -87.0860 77° East  Level FlightAware Approximate
03:42PM 41.9256 -87.4972 60° Northeast 264 304 7,700  Level Chicago Center
03:43PM 42.1068 -86.9456 80° East  Level FlightAware Approximate
03:43PM 41.9647 -87.4089 59° Northeast 272 313 9,900  Level Chicago Center
03:44PM 42.0028 -87.3175 61° Northeast 278 320 11,900 1,860 Climbing Chicago Center
03:45PM 42.0439 -87.2236 59° Northeast 289 333 13,800 1,740 Climbing Chicago Center
03:47PM 42.0844 -87.1286 60° Northeast 294 338 15,500 1,020 Climbing Chicago Center
03:48PM 42.1175 -87.0325 65° Northeast 286 329 16,000 300 Climbing Chicago Center
03:49PM 42.1178 -86.8881 90° East 308 354 16,200 660 Climbing Chicago Center
03:50PM 42.1222 -86.7689 87° East 317 365 17,400 960 Climbing Chicago Center
03:51PM 42.0972 -86.6342 104° East 357 411 18,300 900 Climbing Chicago Center
03:52PM 42.0839 -86.5042 98° East 359 413 19,300 960 Climbing Chicago Center
03:53PM 42.0886 -86.3669 87° East 366 421 20,300 960 Climbing Chicago Center
03:55PM 42.0992 -86.0872 87° East 376 433 22,300 960 Climbing Chicago Center
03:56PM 42.1053 -85.9281 87° East 378 435 23,400 960 Climbing Chicago Center
03:57PM 42.1094 -85.7839 88° East 384 442 24,400 960 Climbing Chicago Center
03:58PM 42.1144 -85.6394 87° East 388 447 25,400 960 Climbing Chicago Center
03:59PM 42.1192 -85.4931 87° East 393 452 26,400 1,020 Climbing Chicago Center
04:00PM 42.1247 -85.3183 87° East 391 450 27,600 1,020 Climbing Chicago Center
04:01PM 42.1294 -85.1708 87° East 395 455 28,600 960 Climbing Chicago Center
04:02PM 42.1333 -85.0286 88° East 387 445 29,600 960 Climbing Chicago Center
04:03PM 42.1303 -84.8836 92° East 388 447 30,600 960 Climbing Chicago Center
04:04PM 42.1283 -84.7381 91° East 390 449 31,600 1,080 Climbing Chicago Center
04:05PM 42.1247 -84.5631 92° East 390 449 32,900 1,080 Climbing Chicago Center
04:06PM 42.1275 -84.4192 88° East 385 443 33,900 960 Climbing Chicago Center
04:07PM 42.1456 -84.2783 80° East 382 440 34,900 540 Climbing Chicago Center
04:08PM 42.1481 -84.1597 88° East 379 436 35,000  Climbing Cleveland Center
04:09PM 42.1467 -84.0028 91° East 391 450 35,000  Level Cleveland Center
04:10PM 42.1428 -83.8486 92° East 404 465 35,000  Level Cleveland Center
04:11PM 42.1386 -83.6942 92° East 409 471 35,000  Level Cleveland Center
04:12PM 42.1369 -83.5261 91° East 409 471 35,000  Level Cleveland Center
04:13PM 42.1325 -83.3692 92° East 409 471 35,000  Level Cleveland Center
04:14PM 42.1300 -83.2150 91° East 409 471 35,000 300 Level Cleveland Center
04:15PM 42.1247 -83.0719 93° East 415 478 35,600 780 Climbing Cleveland Center
04:16PM 42.1194 -82.9206 93° East 409 471 36,600 660 Climbing Cleveland Center
04:17PM 42.1183 -82.7694 91° East 403 464 37,000 180 Climbing Cleveland Center
04:18PM 42.1108 -82.6181 94° East 403 464 37,000  Level Cleveland Center
04:19PM 42.1133 -82.4614 89° East 408 470 37,000  Level Cleveland Center
04:20PM 42.0992 -82.3125 97° East 403 464 37,000  Level Cleveland Center
04:21PM 42.0950 -82.1558 92° East 408 470 37,000  Level Cleveland Center
04:22PM 42.0911 -81.9850 92° East 408 470 37,000  Level Cleveland Center
04:23PM 42.0867 -81.8253 92° East 414 476 37,000  Level Cleveland Center
04:24PM 42.0800 -81.6658 93° East 424 488 37,000  Level Cleveland Center
04:25PM 42.0731 -81.5061 93° East 424 488 37,000  Level Cleveland Center
04:26PM 42.0678 -81.3439 92° East 429 494 37,000  Level Cleveland Center
04:27PM 42.0583 -81.1789 94° East 429 494 37,000  Level Cleveland Center
04:28PM 42.0508 -81.0108 93° East 440 506 37,000 -300 Level Cleveland Center
04:29PM 42.0450 -80.8711 93° East 435 501 36,500 -780 Descending Cleveland Center
04:30PM 42.0392 -80.7061 93° East 435 501 35,500 -1,020 Descending Cleveland Center
04:31PM 42.0289 -80.5469 95° East 440 506 34,500 -780 Descending Cleveland Center
04:32PM 42.0222 -80.3819 93° East 440 506 34,000 -300 Descending Cleveland Center
04:33PM 42.0136 -80.2283 94° East 426 490 34,000  Level Cleveland Center
04:34PM 42.0047 -80.0550 94° East 421 484 34,000  Level Cleveland Center
04:35PM 41.9975 -79.9069 94° East 427 491 34,000  Level Cleveland Center
04:36PM 41.9881 -79.7394 94° East 432 497 34,000 -360 Level Cleveland Center
04:37PM 41.9786 -79.5750 94° East 439 505 33,300 -540 Descending Cleveland Center
04:38PM 41.9686 -79.4103 95° East 439 505 33,000 -180 Descending Cleveland Center
04:39PM 41.9586 -79.2542 95° East 439 505 33,000  Level Cleveland Center
04:40PM 41.9503 -79.0867 94° East 439 505 33,000  Level Cleveland Center
04:41PM 41.9375 -78.9222 96° East 439 505 33,000  Level Cleveland Center
04:42PM 41.9267 -78.7608 95° East 439 505 33,000  Level Cleveland Center
04:43PM 41.9178 -78.5964 94° East 439 505 33,000 -480 Level Cleveland Center
04:44PM 41.9044 -78.4294 96° East 439 505 32,100 -960 Descending Cleveland Center
04:45PM 41.8950 -78.2678 94° East 439 505 31,100 -960 Descending Cleveland Center
04:47PM 41.8656 -77.9011 96° East 436 502 29,000 -960 Descending New York Center
04:48PM 41.8247 -77.7492 110° East 436 502 28,000 -1,020 Descending New York Center
04:49PM 41.7683 -77.6069 118° Southeast 431 496 27,000 -1,020 Descending New York Center
04:50PM 41.7100 -77.4619 118° Southeast 437 503 26,000 -1,140 Descending New York Center
04:51PM 41.6800 -77.2867 103° East 437 503 24,800 -1,320 Descending New York Center
04:52PM 41.6683 -77.1578 97° East 437 503 23,400 -1,920 Descending New York Center
04:53PM 41.6481 -76.9892 99° East 431 496 21,000 -2,400 Descending New York Center
04:54PM 41.6328 -76.8408 98° East 425 489 18,700 -2,160 Descending New York Center
04:55PM 41.6197 -76.7286 99° East 404 465 16,800 -2,880 Descending New York Center
04:56PM 41.6008 -76.5658 99° East 370 426 12,900 -3,060 Descending New York Center
04:57PM 41.5850 -76.4203 98° East 365 420 10,800 -1,620 Descending New York Center
04:58PM 41.5733 -76.3111 98° East 328 377 9,800 -1,320 Descending New York Center
04:59PM 41.5614 -76.2103 99° East 285 328 8,200 -1,680 Descending New York Center
05:00PM 41.5442 -76.1286 106° East 261 300 6,500 -1,620 Descending New York Center
05:01PM 41.4825 -76.0683 144° Southeast 244 281 5,100 -1,320 Descending New York Center
05:02PM 41.4244 -76.0111 144° Southeast 256 295 4,000 -600 Descending New York Center
05:03PM 41.3664 -75.9569 145° Southeast 261 300 4,000 -60 Level New York Center
05:04PM 41.3064 -75.9053 147° Southeast 261 300 3,900 -360 Descending New York Center
05:05PM 41.2628 -75.8522 138° Southeast 245 282 3,300 -600 Descending New York Center